Time;durP1;ratioP1;P1;durP2;ratioP2;P2;SDS_P1;SDS_P2;PMS_P1;PMS_P2;Temp;Humidity;BMP_temperature;BMP_pressure;BME280_temperature;BME280_humidity;BME280_pressure;Samples;Min_cycle;Max_cycle;Signal;HPM_P1;HPM_P2
2023/09/07 00:02:23;;;;;;;6.20;3.60;;;;;;;16.07;81.18;101069.97;4899688;29;20100;-63
2023/09/07 00:05:26;;;;;;;4.20;3.22;;;;;;;15.97;81.64;101067.09;4899541;29;20149;-63
2023/09/07 00:08:30;;;;;;;6.82;3.63;;;;;;;15.98;81.62;101059.06;4899574;29;20051;-64
2023/09/07 00:11:33;;;;;;;6.47;3.28;;;;;;;15.95;81.17;101063.69;4899409;29;20043;-63
2023/09/07 00:14:37;;;;;;;3.88;2.70;;;;;;;15.87;81.75;101061.59;4899383;29;20052;-63
2023/09/07 00:17:40;;;;;;;8.50;4.05;;;;;;;15.83;81.87;101073.28;4891668;29;20059;-63
2023/09/07 00:20:43;;;;;;;9.23;3.85;;;;;;;15.75;82.13;101068.50;4892354;29;20113;-63
2023/09/07 00:23:47;;;;;;;6.07;3.90;;;;;;;15.78;81.98;101064.81;4899196;29;20047;-63
2023/09/07 00:26:51;;;;;;;6.18;3.63;;;;;;;15.80;81.72;101062.94;4899286;29;20107;-63
2023/09/07 00:29:55;;;;;;;8.65;3.90;;;;;;;15.81;81.45;101062.81;4887412;29;20059;-63
2023/09/07 00:32:58;;;;;;;8.18;3.38;;;;;;;15.66;82.01;101062.94;4882049;29;20127;-63
2023/09/07 00:36:03;;;;;;;6.57;2.83;;;;;;;15.59;82.22;101070.41;4899083;29;20075;-63
2023/09/07 00:39:06;;;;;;;8.38;3.33;;;;;;;15.63;82.16;101061.34;4887246;29;20063;-63
2023/09/07 00:42:09;;;;;;;5.72;3.47;;;;;;;15.66;81.90;101068.22;4886789;29;20051;-63
2023/09/07 00:45:13;;;;;;;9.32;3.53;;;;;;;15.57;82.07;101061.75;4898843;29;20570;-63
2023/09/07 00:48:17;;;;;;;7.63;3.60;;;;;;;15.54;82.27;101062.81;4887455;29;20055;-63
2023/09/07 00:51:20;;;;;;;6.18;3.60;;;;;;;15.47;82.44;101058.03;4887378;29;20052;-63
2023/09/07 00:54:23;;;;;;;5.38;3.53;;;;;;;15.38;82.94;101053.34;4886975;29;20104;-63
2023/09/07 00:57:27;;;;;;;6.03;3.22;;;;;;;15.39;82.69;101052.41;4898836;29;20081;-63
2023/09/07 01:00:30;;;;;;;12.10;3.55;;;;;;;15.36;82.86;101053.44;4887054;29;20108;-63
2023/09/07 01:03:34;;;;;;;7.20;3.10;;;;;;;15.35;82.73;101049.13;4898465;29;20423;-63
2023/09/07 01:06:42;;;;;;;8.68;4.20;;;;;;;15.34;82.54;101042.16;4886950;29;20144;-63
2023/09/07 01:09:52;;;;;;;6.25;3.33;;;;;;;15.35;82.45;101044.69;4891149;29;20051;-63
2023/09/07 01:12:55;;;;;;;6.53;3.28;;;;;;;15.38;82.47;101043.66;4886458;29;20096;-63
2023/09/07 01:15:59;;;;;;;6.68;3.50;;;;;;;15.32;82.44;101038.78;4898203;29;20116;-63
2023/09/07 01:19:05;;;;;;;6.53;3.67;;;;;;;15.22;82.74;101040.28;4886592;29;20039;-63
2023/09/07 01:22:09;;;;;;;6.18;3.60;;;;;;;15.24;82.22;101039.25;4898165;29;20047;-63
2023/09/07 01:25:13;;;;;;;5.50;2.97;;;;;;;15.22;82.25;101037.66;4886836;29;20124;-63
2023/09/07 01:28:16;;;;;;;9.48;3.50;;;;;;;15.25;81.85;101048.00;4898349;29;20084;-63
2023/09/07 01:31:20;;;;;;;9.95;4.13;;;;;;;15.20;81.91;101045.66;4898056;29;20043;-63
2023/09/07 01:34:24;;;;;;;4.90;3.50;;;;;;;15.08;82.40;101035.91;4886321;29;20048;-63
2023/09/07 01:37:27;;;;;;;7.18;2.85;;;;;;;14.98;82.75;101042.69;4897827;29;20108;-63
2023/09/07 01:40:30;;;;;;;8.75;3.25;;;;;;;15.01;82.68;101032.81;4886261;29;20063;-63
2023/09/07 01:43:36;;;;;;;6.15;3.70;;;;;;;14.91;83.17;101026.44;4897842;29;20043;-63
2023/09/07 01:46:38;;;;;;;8.85;3.25;;;;;;;14.96;83.08;101026.13;4897506;29;20136;-63
2023/09/07 01:49:42;;;;;;;5.90;3.42;;;;;;;14.92;82.87;101027.28;4886406;29;20055;-63
2023/09/07 01:52:48;;;;;;;8.32;4.15;;;;;;;14.75;83.33;101030.97;4885789;29;20046;-63
2023/09/07 01:55:55;;;;;;;6.35;2.88;;;;;;;14.88;82.88;101042.44;4885865;29;20131;-63
2023/09/07 01:58:58;;;;;;;5.60;3.78;;;;;;;14.85;82.99;101037.34;4897698;29;20084;-63
2023/09/07 02:02:02;;;;;;;6.05;3.17;;;;;;;14.85;82.53;101038.19;4885850;29;20108;-63
2023/09/07 02:05:05;;;;;;;6.68;3.60;;;;;;;14.70;83.10;101030.38;4885916;29;20602;-63
2023/09/07 02:08:08;;;;;;;7.63;3.38;;;;;;;14.72;83.05;101039.06;4885802;29;20052;-63
2023/09/07 02:11:12;;;;;;;9.60;3.80;;;;;;;14.69;83.60;101033.97;4897373;29;20077;-63
2023/09/07 02:14:15;;;;;;;5.90;3.22;;;;;;;14.64;83.05;101031.59;4897353;29;20055;-63
2023/09/07 02:17:18;;;;;;;5.72;3.25;;;;;;;14.59;83.18;101029.25;4897234;29;20059;-63
2023/09/07 02:20:22;;;;;;;7.38;3.40;;;;;;;14.60;83.20;101027.47;4885937;29;20188;-63
2023/09/07 02:23:25;;;;;;;5.18;3.25;;;;;;;14.51;83.53;101018.34;4886041;29;20056;-63
2023/09/07 02:26:29;;;;;;;8.68;3.50;;;;;;;14.45;83.79;101020.47;4885782;29;20525;-63
2023/09/07 02:29:32;;;;;;;5.22;3.60;;;;;;;14.46;83.92;101017.78;4897195;29;20047;-63
2023/09/07 02:32:35;;;;;;;;;;;;;;;14.53;83.47;101029.63;4886119;29;20509;-63
2023/09/07 02:35:38;;;;;;;7.10;3.17;;;;;;;14.41;83.55;101025.91;4896984;29;19953;-63
2023/09/07 02:38:42;;;;;;;4.97;3.05;;;;;;;14.41;83.45;101025.09;4878118;29;20418;-63
2023/09/07 02:41:46;;;;;;;4.70;3.30;;;;;;;14.42;83.35;101030.25;4885540;29;20518;-63
2023/09/07 02:44:49;;;;;;;5.55;3.10;;;;;;;14.33;83.83;101022.94;4885372;29;20072;-63
2023/09/07 02:47:53;;;;;;;8.82;3.67;;;;;;;14.37;83.42;101032.31;4874733;29;20553;-63
2023/09/07 02:50:58;;;;;;;8.65;3.60;;;;;;;14.35;82.79;101030.72;4897245;29;20059;-63
2023/09/07 02:54:03;;;;;;;7.15;3.55;;;;;;;14.26;83.38;101036.50;4885100;29;20055;-63
2023/09/07 02:57:08;;;;;;;10.63;3.28;;;;;;;14.28;83.14;101034.66;4885307;29;20052;-63
2023/09/07 03:00:12;;;;;;;8.43;3.45;;;;;;;14.18;83.73;101029.09;4896813;29;20100;-63
2023/09/07 03:03:15;;;;;;;7.70;3.50;;;;;;;14.28;83.19;101032.88;4885267;29;20096;-63
2023/09/07 03:06:20;;;;;;;6.32;3.70;;;;;;;14.31;82.88;101029.22;4888940;29;20119;-63
2023/09/07 03:09:27;;;;;;;9.25;3.30;;;;;;;14.25;82.92;101033.03;4887958;29;20132;-63
2023/09/07 03:12:30;;;;;;;6.15;3.65;;;;;;;14.22;83.33;101033.22;4887386;29;20073;-63
2023/09/07 03:15:34;;;;;;;5.40;3.38;;;;;;;14.23;83.03;101031.44;4888744;29;20468;-63
2023/09/07 03:18:38;;;;;;;4.00;3.35;;;;;;;14.18;82.81;101031.72;4888718;29;20139;-63
2023/09/07 03:21:42;;;;;;;6.05;4.05;;;;;;;14.10;83.04;101028.69;4888868;29;20091;-63
2023/09/07 03:24:44;;;;;;;5.55;3.25;;;;;;;14.03;83.35;101022.94;4888414;29;20047;-63
2023/09/07 03:27:48;;;;;;;6.57;3.58;;;;;;;13.95;83.78;101025.19;4893639;29;20048;-63
2023/09/07 03:30:54;;;;;;;8.98;3.28;;;;;;;13.98;83.56;101026.81;4888643;29;20140;-63
2023/09/07 03:33:57;;;;;;;6.30;3.85;;;;;;;13.97;83.45;101031.19;4888427;29;20051;-63
2023/09/07 03:37:00;;;;;;;5.07;3.67;;;;;;;13.98;83.40;101030.28;4888520;29;20096;-63
2023/09/07 03:40:05;;;;;;;6.20;3.38;;;;;;;14.00;83.34;101031.00;4888203;29;20048;-63
2023/09/07 03:43:09;;;;;;;7.82;2.88;;;;;;;13.95;83.42;101033.91;4884447;29;20068;-63
2023/09/07 03:46:13;;;;;;;5.15;3.50;;;;;;;13.88;83.75;101036.97;4918788;29;20410;-63
2023/09/07 03:49:16;;;;;;;6.18;3.42;;;;;;;13.87;83.73;101030.03;4918864;29;20104;-63
2023/09/07 03:52:21;;;;;;;4.72;3.20;;;;;;;13.83;83.70;101036.41;4918813;29;20050;-63
2023/09/07 03:55:25;;;;;;;6.53;2.95;;;;;;;13.79;83.67;101037.53;4906763;29;20047;-63
2023/09/07 03:58:28;;;;;;;6.40;3.45;;;;;;;13.76;83.87;101045.59;4906606;29;20157;-63
2023/09/07 04:01:32;;;;;;;5.65;3.30;;;;;;;13.82;83.37;101032.09;4899656;29;20046;-63
2023/09/07 04:04:35;;;;;;;7.53;3.00;;;;;;;13.84;83.10;101038.94;4888165;29;20108;-63
2023/09/07 04:07:38;;;;;;;5.55;3.10;;;;;;;13.78;83.20;101041.06;4905187;29;20460;-63
2023/09/07 04:10:42;;;;;;;4.82;3.53;;;;;;;13.72;83.06;101043.13;4906429;29;20051;-66
2023/09/07 04:13:45;;;;;;;5.22;3.70;;;;;;;13.69;83.52;101027.53;4906418;29;20563;-64
2023/09/07 04:16:50;;;;;;;6.97;4.18;;;;;;;13.59;83.47;101030.75;4914225;29;20058;-64
2023/09/07 04:19:54;;;;;;;5.80;3.33;;;;;;;13.60;83.47;101037.75;4906469;29;20047;-64
2023/09/07 04:22:58;;;;;;;4.20;3.10;;;;;;;13.56;83.74;101039.69;4905883;29;20039;-65
2023/09/07 04:26:07;;;;;;;5.68;3.65;;;;;;;13.44;84.68;101038.59;4913473;29;20112;-65
2023/09/07 04:29:12;;;;;;;12.70;4.07;;;;;;;13.43;84.53;101036.03;4918206;29;20050;-65
2023/09/07 04:32:16;;;;;;;5.18;3.63;;;;;;;13.47;84.53;101037.56;4903645;29;20100;-72
2023/09/07 04:35:20;;;;;;;16.77;3.35;;;;;;;13.16;85.99;101038.41;4906720;29;20092;-68
2023/09/07 04:38:23;;;;;;;8.23;3.55;;;;;;;12.95;87.66;101051.75;4895250;29;20099;-66
2023/09/07 04:41:26;;;;;;;9.68;3.70;;;;;;;13.00;87.26;101044.47;4906068;29;20051;-67
2023/09/07 04:44:30;;;;;;;6.07;3.47;;;;;;;12.91;87.76;101049.38;4905428;29;20043;-67
2023/09/07 04:47:34;;;;;;;6.80;3.63;;;;;;;13.16;86.39;101044.50;4917162;29;20051;-66
2023/09/07 04:50:37;;;;;;;5.68;3.00;;;;;;;13.28;85.74;101039.53;4893630;29;20051;-66
2023/09/07 04:53:41;;;;;;;4.38;3.30;;;;;;;13.27;84.57;101041.28;4904486;29;20059;-66
2023/09/07 04:56:44;;;;;;;6.47;3.40;;;;;;;13.35;84.31;101041.72;4904322;29;20050;-66
2023/09/07 04:59:47;;;;;;;7.07;3.47;;;;;;;13.34;84.57;101047.94;4904205;29;20154;-66
2023/09/07 05:02:50;;;;;;;7.72;3.15;;;;;;;13.41;83.98;101054.53;4904055;29;20414;-66
2023/09/07 05:05:54;;;;;;;4.22;2.83;;;;;;;13.25;84.48;101057.16;4915563;29;20087;-66
2023/09/07 05:08:57;;;;;;;5.60;3.58;;;;;;;13.33;84.12;101056.72;4915559;29;20167;-66
2023/09/07 05:12:00;;;;;;;5.75;3.75;;;;;;;13.41;83.76;101064.19;4903694;29;20107;-66
2023/09/07 05:15:06;;;;;;;7.22;3.30;;;;;;;13.40;83.82;101065.97;4910737;29;20047;-66
2023/09/07 05:18:10;;;;;;;4.78;3.30;;;;;;;13.41;83.25;101061.56;4899983;29;20051;-66
2023/09/07 05:21:14;;;;;;;4.32;3.08;;;;;;;13.32;83.65;101064.69;4915259;29;20075;-66
2023/09/07 05:24:18;;;;;;;4.72;3.58;;;;;;;13.34;83.65;101062.84;4903346;29;20059;-66
2023/09/07 05:27:22;;;;;;;5.82;3.60;;;;;;;13.31;83.88;101063.00;4903163;29;20103;-66
2023/09/07 05:30:25;;;;;;;3.70;2.70;;;;;;;13.32;84.06;101065.53;4903326;29;20123;-66
2023/09/07 05:33:29;;;;;;;3.90;3.10;;;;;;;13.33;84.05;101067.22;4903487;29;20103;-66
2023/09/07 05:36:32;;;;;;;4.53;2.97;;;;;;;13.38;84.06;101065.19;4915608;29;20047;-66
2023/09/07 05:39:35;;;;;;;;;;;;;;;13.48;83.53;101062.91;4903698;29;20055;-66
2023/09/07 05:42:38;;;;;;;7.47;3.58;;;;;;;13.38;84.16;101065.19;4903180;29;20376;-66
2023/09/07 05:45:42;;;;;;;5.88;3.40;;;;;;;13.31;84.78;101076.97;4895725;29;20135;-66
2023/09/07 05:48:47;;;;;;;6.50;3.55;;;;;;;13.40;84.95;101076.47;4903031;29;20051;-66
2023/09/07 05:51:52;;;;;;;7.63;3.50;;;;;;;13.41;85.06;101079.94;4903179;29;20059;-66
2023/09/07 05:54:55;;;;;;;5.60;3.33;;;;;;;13.50;84.94;101082.06;4902696;29;20059;-66
2023/09/07 05:57:59;;;;;;;5.05;3.47;;;;;;;13.53;85.20;101081.03;4902974;29;20055;-66
2023/09/07 06:01:05;;;;;;;7.53;3.47;;;;;;;13.57;85.34;101080.78;4902809;29;20051;-66
2023/09/07 06:04:08;;;;;;;5.63;3.00;;;;;;;13.52;85.98;101082.81;4914687;29;20106;-66
2023/09/07 06:07:11;;;;;;;4.60;3.13;;;;;;;13.56;86.22;101083.50;4902785;29;20055;-66
2023/09/07 06:10:15;;;;;;;8.93;3.35;;;;;;;13.52;86.55;101085.44;4899323;29;20046;-66
2023/09/07 06:13:18;;;;;;;6.72;3.78;;;;;;;13.59;86.69;101089.44;4914444;29;20096;-66
2023/09/07 06:16:21;;;;;;;7.70;3.15;;;;;;;13.64;86.47;101083.91;4902489;29;20327;-66
2023/09/07 06:19:24;;;;;;;10.20;3.35;;;;;;;13.63;87.33;101090.13;4914779;29;20410;-66
2023/09/07 06:22:28;;;;;;;5.10;3.22;;;;;;;13.69;87.52;101085.38;4902639;29;20169;-66
2023/09/07 06:25:32;;;;;;;6.03;3.78;;;;;;;13.81;87.11;101085.59;4902658;29;20054;-66
2023/09/07 06:28:37;;;;;;;7.90;3.22;;;;;;;13.92;87.16;101089.31;4902898;29;20047;-66
2023/09/07 06:31:40;;;;;;;4.72;3.28;;;;;;;14.07;87.00;101089.34;4902835;29;20107;-66
2023/09/07 06:34:44;;;;;;;7.20;3.75;;;;;;;14.16;87.13;101086.19;4902678;29;20047;-66
2023/09/07 06:37:47;;;;;;;7.38;3.40;;;;;;;14.32;86.35;101096.66;4902120;29;20514;-66
2023/09/07 06:40:53;;;;;;;5.18;3.08;;;;;;;14.35;86.69;101093.84;4902508;29;20363;-67
2023/09/07 06:43:57;;;;;;;4.45;2.88;;;;;;;14.36;86.95;101085.88;4902444;29;20043;-67
2023/09/07 06:47:01;;;;;;;3.95;3.05;;;;;;;14.37;87.36;101087.56;4902466;29;20107;-67
2023/09/07 06:50:06;;;;;;;5.95;3.45;;;;;;;14.52;87.22;101090.28;4897839;29;20042;-68
2023/09/07 06:53:10;;;;;;;5.65;3.03;;;;;;;14.62;87.29;101086.97;4902290;29;20411;-67
2023/09/07 06:56:14;;;;;;;6.47;3.42;;;;;;;14.70;87.23;101091.78;4902167;29;20151;-67
2023/09/07 06:59:18;;;;;;;4.85;3.08;;;;;;;14.74;87.66;101089.78;4902242;29;20123;-68
2023/09/07 07:02:21;;;;;;;3.70;2.72;;;;;;;14.78;88.17;101086.91;4902204;29;20242;-68
2023/09/07 07:05:28;;;;;;;7.10;3.47;;;;;;;14.85;88.75;101087.38;4914022;29;20039;-73
2023/09/07 07:08:31;;;;;;;5.70;3.45;;;;;;;14.86;89.91;101089.06;4902433;29;20407;-70
2023/09/07 07:11:35;;;;;;;4.93;2.97;;;;;;;14.96;90.29;101090.19;4914005;29;20162;-72
2023/09/07 07:14:39;;;;;;;6.30;3.05;;;;;;;15.10;90.56;101092.81;4914166;29;20054;-68
2023/09/07 07:17:42;;;;;;;5.82;3.30;;;;;;;15.10;91.63;101092.81;4902199;29;20180;-70
2023/09/07 07:20:46;;;;;;;5.28;3.40;;;;;;;15.17;91.83;101098.53;4895588;29;20510;-68
2023/09/07 07:23:49;;;;;;;7.72;3.28;;;;;;;15.29;91.90;101099.56;4895561;29;20047;-68
2023/09/07 07:26:53;;;;;;;5.82;3.38;;;;;;;15.41;92.68;101096.19;4902137;29;20059;-68
2023/09/07 07:29:56;;;;;;;7.32;3.28;;;;;;;15.53;91.99;101098.00;4902056;29;20088;-68
2023/09/07 07:33:00;;;;;;;4.82;3.22;;;;;;;15.67;93.18;101101.59;4914095;29;20123;-70
2023/09/07 07:36:05;;;;;;;6.28;2.90;;;;;;;15.91;92.95;101104.41;4902336;29;20102;-71
2023/09/07 07:39:08;;;;;;;4.78;2.90;;;;;;;16.01;92.35;101095.78;4902018;29;20047;-71
2023/09/07 07:42:12;;;;;;;6.15;3.22;;;;;;;16.11;92.47;101089.91;4901994;29;20130;-71
2023/09/07 07:45:19;;;;;;;6.10;3.17;;;;;;;16.30;92.08;101089.53;4898990;29;20095;-70
2023/09/07 07:48:23;;;;;;;5.63;3.88;;;;;;;16.39;92.13;101089.75;4907009;29;20103;-68
2023/09/07 07:58:07;;;;;;;19.63;3.90;;;;;;;16.82;90.81;101086.84;4852288;29;20060;-69
2023/09/07 08:01:19;;;;;;;9.00;3.65;;;;;;;17.10;88.99;101084.91;4887343;29;20097;-69
2023/09/07 08:04:56;;;;;;;7.28;3.15;;;;;;;17.32;87.51;101069.19;4887847;29;20526;-69
2023/09/07 08:09:08;;;;;;;8.77;4.40;;;;;;;17.52;86.46;101072.22;4887938;29;20383;-69
2023/09/07 08:16:39;;;;;;;6.10;3.60;;;;;;;17.81;83.22;101065.66;4896124;29;20056;-69
2023/09/07 08:19:43;;;;;;;5.82;3.75;;;;;;;17.97;82.56;101069.84;4886169;29;20571;-70
2023/09/07 08:22:47;;;;;;;9.82;4.40;;;;;;;18.13;81.71;101062.41;4885733;29;20058;-70
2023/09/07 08:25:52;;;;;;;10.52;4.03;;;;;;;18.25;81.44;101056.22;4885746;29;20534;-70
2023/09/07 08:28:56;;;;;;;9.52;4.32;;;;;;;18.35;80.34;101046.59;4886364;29;20139;-69
2023/09/07 08:32:03;;;;;;;11.15;4.93;;;;;;;18.47;79.07;101051.88;4898452;29;20059;-68
2023/09/07 08:35:09;;;;;;;8.45;4.45;;;;;;;18.55;79.54;101053.00;4907726;29;20043;-69
2023/09/07 08:38:13;;;;;;;8.07;4.30;;;;;;;18.77;79.29;101049.56;4897117;29;20116;-68
2023/09/07 08:41:17;;;;;;;4.40;3.47;;;;;;;18.97;78.13;101050.63;4917048;29;20513;-68
2023/09/07 08:44:21;;;;;;;10.32;4.15;;;;;;;19.09;79.20;101048.81;4935051;29;20046;-68
2023/09/07 08:47:25;;;;;;;7.90;4.20;;;;;;;19.17;78.57;101041.06;4923181;29;20125;-68
2023/09/07 08:50:30;;;;;;;10.77;4.40;;;;;;;19.35;77.49;101040.56;4934624;29;20526;-69
2023/09/07 08:53:33;;;;;;;9.30;4.03;;;;;;;19.46;77.57;101036.09;4934643;29;20131;-66
2023/09/07 08:56:37;;;;;;;8.18;4.22;;;;;;;19.43;75.68;101038.13;4919851;29;20046;-66
2023/09/07 08:59:40;;;;;;;5.25;3.78;;;;;;;19.48;76.08;101038.59;4896907;29;20112;-66
2023/09/07 09:02:46;;;;;;;9.57;4.07;;;;;;;19.65;77.26;101037.25;4896051;29;20506;-66
2023/09/07 09:05:51;;;;;;;7.03;3.60;;;;;;;19.70;75.49;101025.28;4896783;29;20099;-66
2023/09/07 09:12:47;;;;;;;8.27;3.53;;;;;;;20.02;73.59;101027.06;4895908;29;20172;-66
2023/09/07 09:15:50;;;;;;;8.38;3.85;;;;;;;20.18;75.55;101024.81;4913342;29;20533;-66
2023/09/07 09:18:57;;;;;;;8.23;4.38;;;;;;;20.24;72.96;101030.56;4916454;29;20126;-66
2023/09/07 09:22:02;;;;;;;5.95;3.83;;;;;;;20.27;73.72;101025.84;4935058;29;20398;-66
2023/09/07 09:25:05;;;;;;;10.40;3.58;;;;;;;20.47;72.93;101018.81;4934797;29;20554;-66
2023/09/07 09:28:10;;;;;;;6.38;4.43;;;;;;;20.59;73.21;101020.44;4934829;29;20078;-66
2023/09/07 09:31:14;;;;;;;10.65;4.10;;;;;;;20.76;72.99;101015.47;4934809;29;20074;-66
2023/09/07 09:34:19;;;;;;;7.47;3.20;;;;;;;20.90;71.57;101009.81;4934628;29;20058;-66
2023/09/07 09:37:23;;;;;;;6.00;3.90;;;;;;;20.97;71.37;100997.66;4934763;29;20059;-66
2023/09/07 09:40:26;;;;;;;5.55;3.60;;;;;;;21.08;70.63;101002.00;4934542;29;20039;-66
2023/09/07 09:43:30;;;;;;;5.00;3.67;;;;;;;21.09;71.40;100999.22;4934482;29;20047;-66
2023/09/07 09:46:35;;;;;;;5.35;3.40;;;;;;;21.17;71.46;100990.53;4934199;29;20094;-66
2023/09/07 09:49:40;;;;;;;15.00;4.05;;;;;;;21.42;69.66;100991.88;4934427;29;20091;-66
2023/09/07 09:52:45;;;;;;;9.18;4.07;;;;;;;21.51;67.84;100988.38;4934289;29;20046;-66
2023/09/07 09:55:52;;;;;;;6.95;3.60;;;;;;;21.49;70.68;100981.50;4934340;29;20043;-66
2023/09/07 09:58:55;;;;;;;7.38;3.28;;;;;;;21.63;69.77;100977.56;4934176;29;20070;-66
2023/09/07 10:02:00;;;;;;;5.25;3.55;;;;;;;21.65;69.18;100975.63;4925715;29;20047;-66
2023/09/07 10:05:07;;;;;;;6.63;3.70;;;;;;;21.97;67.60;100970.81;4900031;29;20096;-66
2023/09/07 10:08:14;;;;;;;5.30;3.42;;;;;;;22.09;67.25;100976.00;4923987;29;20182;-66
2023/09/07 10:11:26;;;;;;;6.10;3.38;;;;;;;21.98;67.19;100971.66;4931138;29;20050;-67
2023/09/07 10:14:44;;;;;;;6.32;3.40;;;;;;;22.29;67.39;100964.31;4933492;29;20126;-66
2023/09/07 10:17:50;;;;;;;7.22;3.95;;;;;;;22.26;66.58;100960.09;4933012;29;20110;-66
2023/09/07 10:20:58;;;;;;;4.68;2.80;;;;;;;22.41;66.42;100957.00;4921535;29;20086;-66
2023/09/07 10:24:01;;;;;;;6.88;3.72;;;;;;;22.44;66.77;100956.69;4928547;29;20724;-66
2023/09/07 10:27:07;;;;;;;9.05;3.72;;;;;;;22.55;66.06;100953.81;4929299;29;20110;-66
2023/09/07 10:30:18;;;;;;;9.85;3.15;;;;;;;22.57;65.62;100957.19;4917047;29;20050;-66
2023/09/07 10:33:22;;;;;;;5.80;2.85;;;;;;;22.55;65.90;100950.31;4895453;29;20533;-67
2023/09/07 10:36:27;;;;;;;7.85;3.90;;;;;;;22.79;66.26;100945.28;4928559;29;20481;-67
2023/09/07 10:39:35;;;;;;;6.88;3.10;;;;;;;22.81;66.48;100940.63;4933299;29;20132;-67
2023/09/07 10:42:38;;;;;;;4.88;3.20;;;;;;;22.84;65.41;100928.84;4933511;29;20520;-67
2023/09/07 10:45:56;;;;;;;7.80;3.75;;;;;;;23.05;66.02;100929.44;4933611;29;20491;-67
2023/09/07 10:49:03;;;;;;;5.10;3.00;;;;;;;23.30;64.73;100925.19;4928448;29;20601;-67
2023/09/07 10:52:06;;;;;;;4.60;3.38;;;;;;;23.19;64.86;100925.38;4921823;29;20054;-67
2023/09/07 10:55:10;;;;;;;10.88;3.00;;;;;;;23.69;63.65;100916.00;4915257;29;20066;-67
2023/09/07 10:58:25;;;;;;;4.28;2.90;;;;;;;23.81;62.29;100915.59;4915191;29;20107;-68
2023/09/07 11:01:28;;;;;;;6.07;2.83;;;;;;;23.72;60.92;100915.69;4895419;29;20052;-67
2023/09/07 11:04:31;;;;;;;6.65;2.80;;;;;;;24.17;59.42;100910.13;4895313;29;20498;-68
2023/09/07 11:07:35;;;;;;;7.47;3.60;;;;;;;24.54;58.41;100901.81;4894725;29;20104;-67
2023/09/07 11:10:42;;;;;;;7.80;3.13;;;;;;;24.26;58.94;100898.47;4918844;29;20095;-67
2023/09/07 11:13:46;;;;;;;5.72;2.60;;;;;;;24.08;58.92;100889.69;4931628;29;20410;-66
2023/09/07 11:16:49;;;;;;;6.90;2.80;;;;;;;24.19;59.02;100892.09;4933187;29;20054;-66
2023/09/07 11:19:55;;;;;;;5.35;2.83;;;;;;;24.20;59.33;100899.13;4932600;29;20468;-66
2023/09/07 11:23:00;;;;;;;5.28;2.80;;;;;;;24.29;59.16;100890.16;4927500;29;20110;-66
2023/09/07 11:26:05;;;;;;;5.55;3.00;;;;;;;24.37;59.26;100879.47;4930521;29;20509;-66
2023/09/07 11:29:18;;;;;;;4.70;2.88;;;;;;;24.53;58.84;100877.88;4921553;29;20042;-65
2023/09/07 11:32:21;;;;;;;8.70;2.90;;;;;;;24.61;58.67;100877.94;4936739;29;20126;-69
2023/09/07 11:35:25;;;;;;;4.55;2.80;;;;;;;24.80;56.06;100874.13;4936507;29;20058;-69
2023/09/07 11:38:36;;;;;;;5.57;3.13;;;;;;;24.66;57.32;100875.59;4936308;29;20099;-68
2023/09/07 11:41:44;;;;;;;5.72;2.40;;;;;;;24.85;57.55;100868.28;4936902;29;20518;-68
2023/09/07 11:44:50;;;;;;;7.30;2.90;;;;;;;25.14;59.16;100868.66;4936301;29;20043;-67
2023/09/07 11:47:54;;;;;;;5.65;2.88;;;;;;;25.30;56.34;100865.16;4934640;29;20130;-66
2023/09/07 11:50:58;;;;;;;6.63;3.13;;;;;;;25.25;55.10;100864.84;4935518;29;20074;-67
2023/09/07 11:54:02;;;;;;;4.63;2.90;;;;;;;25.12;55.49;100865.34;4933986;29;20435;-66
2023/09/07 11:57:11;;;;;;;4.82;3.25;;;;;;;25.66;52.77;100856.75;4932416;29;20050;-66
2023/09/07 12:00:15;;;;;;;5.07;3.00;;;;;;;25.68;53.53;100857.41;4902924;29;20047;-66
2023/09/07 12:03:21;;;;;;;6.07;2.90;;;;;;;25.70;54.14;100860.75;4916890;29;20301;-66
2023/09/07 12:06:27;;;;;;;3.80;3.00;;;;;;;25.75;51.75;100855.75;4916990;29;20066;-67
2023/09/07 12:09:30;;;;;;;5.88;2.60;;;;;;;25.97;52.69;100844.31;4917285;29;20094;-69
2023/09/07 12:12:33;;;;;;;10.45;3.28;;;;;;;25.97;51.35;100846.13;4916840;29;20070;-70
2023/09/07 12:15:40;;;;;;;4.25;2.60;;;;;;;26.40;47.85;100846.63;4917272;29;20115;-70
2023/09/07 12:18:43;;;;;;;6.15;2.92;;;;;;;26.48;48.81;100838.56;4916708;29;20047;-71
2023/09/07 12:21:47;;;;;;;5.18;2.63;;;;;;;26.71;48.63;100837.75;4917164;29;20638;-73
2023/09/07 12:24:50;;;;;;;6.80;3.13;;;;;;;26.84;47.59;100836.16;4916954;29;20051;-71
2023/09/07 12:27:56;;;;;;;5.72;2.65;;;;;;;27.18;45.87;100828.72;4905212;29;20047;-68
2023/09/07 12:31:00;;;;;;;5.70;2.63;;;;;;;27.43;45.88;100827.47;4919532;29;20064;-67
2023/09/07 12:34:03;;;;;;;5.07;2.90;;;;;;;27.94;43.64;100816.84;4916810;29;20051;-68
2023/09/07 12:37:06;;;;;;;4.10;2.30;;;;;;;28.39;42.21;100822.97;4892001;29;20051;-67
2023/09/07 12:40:12;;;;;;;7.28;2.83;;;;;;;28.69;41.46;100814.88;4897725;29;20071;-67
2023/09/07 12:43:15;;;;;;;4.97;2.33;;;;;;;29.03;41.25;100816.84;4894213;29;20200;-66
2023/09/07 12:46:19;;;;;;;5.30;2.40;;;;;;;29.44;40.90;100816.94;4898270;29;20063;-67
2023/09/07 12:49:22;;;;;;;5.10;2.70;;;;;;;29.80;38.69;100805.19;4935501;29;20142;-66
2023/09/07 12:52:25;;;;;;;5.75;2.90;;;;;;;30.12;36.35;100809.06;4934848;29;20102;-66
2023/09/07 12:55:29;;;;;;;4.53;2.58;;;;;;;30.69;36.06;100804.25;4934898;29;20084;-66
2023/09/07 12:58:33;;;;;;;9.68;2.45;;;;;;;30.72;37.99;100809.22;4923302;29;20055;-66
2023/09/07 13:01:37;;;;;;;12.60;2.72;;;;;;;30.95;35.74;100813.44;4913546;29;20091;-66
2023/09/07 13:04:40;;;;;;;6.10;2.85;;;;;;;31.15;34.55;100802.66;4914492;29;20179;-66
2023/09/07 13:07:44;;;;;;;3.45;1.90;;;;;;;31.58;34.52;100797.63;4914422;29;20469;-66
2023/09/07 13:10:47;;;;;;;4.65;2.65;;;;;;;31.99;34.09;100796.47;4907836;29;20051;-66
2023/09/07 13:13:52;;;;;;;7.40;2.85;;;;;;;32.42;32.87;100793.97;4902944;29;20055;-67
2023/09/07 13:16:55;;;;;;;7.38;3.08;;;;;;;32.80;32.53;100794.97;4915401;29;20067;-66
2023/09/07 13:19:59;;;;;;;3.92;2.35;;;;;;;33.36;31.65;100788.66;4915932;29;20139;-67
2023/09/07 13:23:03;;;;;;;3.78;2.75;;;;;;;33.36;30.66;100788.66;4916019;29;20047;-66
2023/09/07 13:26:07;;;;;;;6.43;2.70;;;;;;;33.86;30.56;100779.59;4916746;29;20059;-66
2023/09/07 13:29:12;;;;;;;6.25;2.95;;;;;;;35.01;28.80;100773.16;4915508;29;20051;-67
2023/09/07 13:32:19;;;;;;;5.97;2.90;;;;;;;36.59;25.02;100767.44;4913009;29;20096;-67
2023/09/07 13:35:26;;;;;;;5.53;2.80;;;;;;;40.03;21.91;100748.75;4904566;29;20127;-66
2023/09/07 13:38:29;;;;;;;7.72;2.60;;;;;;;42.69;18.30;100760.50;4915518;29;20087;-67
2023/09/07 13:41:33;;;;;;;3.20;2.17;;;;;;;44.77;16.86;100757.25;4914553;29;20107;-68
2023/09/07 13:44:37;;;;;;;4.90;2.80;;;;;;;45.37;16.43;100748.09;4914359;29;20046;-69
2023/09/07 13:47:45;;;;;;;5.30;2.53;;;;;;;46.26;15.75;100753.03;4915126;29;20054;-68
2023/09/07 13:50:48;;;;;;;5.70;2.67;;;;;;;46.80;14.96;100745.56;4915297;29;20054;-68
2023/09/07 13:53:52;;;;;;;6.80;2.90;;;;;;;48.16;13.70;100746.53;4915272;29;20047;-68
2023/09/07 13:56:55;;;;;;;6.10;2.83;;;;;;;48.38;13.93;100736.38;4915514;29;20096;-68
2023/09/07 13:59:59;;;;;;;6.07;2.40;;;;;;;48.21;13.63;100740.00;4913621;29;20135;-68
2023/09/07 14:03:03;;;;;;;5.30;2.50;;;;;;;49.01;13.20;100729.16;4912323;29;20147;-68
2023/09/07 14:06:06;;;;;;;4.32;2.30;;;;;;;49.39;12.65;100728.28;4917029;29;20122;-68
2023/09/07 14:09:09;;;;;;;3.08;1.80;;;;;;;49.58;12.04;100730.63;4934174;29;20122;-68
2023/09/07 14:12:13;;;;;;;4.50;2.42;;;;;;;49.83;11.92;100730.75;4934356;29;20081;-68
2023/09/07 14:15:16;;;;;;;4.00;2.58;;;;;;;49.00;12.51;100727.53;4931325;29;20585;-67
2023/09/07 14:18:19;;;;;;;7.20;2.95;;;;;;;49.49;11.96;100724.28;4934117;29;20058;-68
2023/09/07 14:21:23;;;;;;;3.55;2.75;;;;;;;50.00;11.35;100722.28;4934333;29;20050;-68
2023/09/07 14:24:26;;;;;;;4.63;2.30;;;;;;;49.93;11.80;100722.84;4933945;29;20035;-68
2023/09/07 14:27:30;;;;;;;6.90;2.38;;;;;;;49.28;11.58;100724.31;4934153;29;20058;-68
2023/09/07 14:31:02;;;;;;;4.22;2.70;;;;;;;49.67;11.90;100714.72;4934021;29;20047;-68
2023/09/07 14:34:06;;;;;;;4.28;2.22;;;;;;;49.18;11.79;100713.56;4934216;29;20050;-68